createdAt,value
2024-03-15T00:01:40.407Z,100798.38
2024-03-15T00:04:07.628Z,100799.75
2024-03-15T00:06:35.519Z,100795.00
2024-03-15T00:09:02.846Z,100793.97
2024-03-15T00:11:31.852Z,100792.13
2024-03-15T00:13:58.843Z,100780.09
2024-03-15T00:16:27.026Z,100780.97
2024-03-15T00:18:55.232Z,100780.28
2024-03-15T00:21:25.363Z,100775.88
2024-03-15T00:23:55.779Z,100770.66
2024-03-15T00:26:23.779Z,100775.22
2024-03-15T00:28:50.820Z,100775.22
2024-03-15T00:31:17.793Z,100775.41
2024-03-15T00:33:44.767Z,100780.16
2024-03-15T00:36:13.420Z,100777.09
2024-03-15T00:38:41.544Z,100771.69
2024-03-15T00:41:08.494Z,100771.31
2024-03-15T00:43:37.588Z,100767.59
2024-03-15T00:46:04.775Z,100756.47
2024-03-15T00:48:31.860Z,100759.00
2024-03-15T00:50:58.823Z,100757.97
2024-03-15T00:53:25.715Z,100750.53
2024-03-15T00:55:52.866Z,100752.56
2024-03-15T00:58:20.346Z,100747.13
2024-03-15T01:00:50.933Z,100754.34
2024-03-15T01:03:20.119Z,100748.06
2024-03-15T01:05:47.160Z,100743.84
2024-03-15T01:08:14.570Z,100746.84
2024-03-15T01:10:43.214Z,100740.75
2024-03-15T01:13:10.325Z,100743.97
2024-03-15T01:15:37.417Z,100745.16
2024-03-15T01:18:04.891Z,100745.81
2024-03-15T01:20:34.095Z,100747.69
2024-03-15T01:23:01.158Z,100740.09
2024-03-15T01:25:28.243Z,100741.59
2024-03-15T01:27:59.689Z,100736.56
2024-03-15T01:30:26.658Z,100731.13
2024-03-15T01:32:56.822Z,100729.78
2024-03-15T01:35:33.644Z,100733.00
2024-03-15T01:38:04.729Z,100735.91
2024-03-15T01:40:32.699Z,100730.81
2024-03-15T01:42:59.607Z,100730.34
2024-03-15T01:45:26.645Z,100734.75
2024-03-15T01:47:54.284Z,100727.28
2024-03-15T01:50:24.474Z,100724.09
2024-03-15T01:52:53.744Z,100718.00
2024-03-15T01:55:28.122Z,100725.47
2024-03-15T01:57:55.469Z,100717.69
2024-03-15T02:00:22.487Z,100720.88
2024-03-15T02:02:49.869Z,100724.25
2024-03-15T02:05:17.914Z,100722.75
2024-03-15T02:07:45.221Z,100714.28
2024-03-15T02:10:21.299Z,100721.19
2024-03-15T02:15:28.936Z,100706.13
2024-03-15T02:17:56.419Z,100719.47
2024-03-15T02:20:24.373Z,100722.34
2024-03-15T02:22:51.285Z,100717.91
2024-03-15T02:25:19.678Z,100717.06
2024-03-15T02:27:49.395Z,100713.31
2024-03-15T02:30:17.988Z,100727.56
2024-03-15T02:32:45.239Z,100714.03
2024-03-15T02:35:20.066Z,100718.22
2024-03-15T02:37:53.952Z,100713.50
2024-03-15T02:40:21.172Z,100721.22
2024-03-15T02:42:48.784Z,100714.31
2024-03-15T02:45:16.394Z,100717.53
2024-03-15T02:47:45.146Z,100724.13
2024-03-15T02:50:12.165Z,100721.59
2024-03-15T02:52:39.065Z,100732.41
2024-03-15T02:55:06.662Z,100727.84
2024-03-15T02:57:33.726Z,100725.97
2024-03-15T03:00:00.745Z,100719.38
2024-03-15T03:02:27.743Z,100723.09
2024-03-15T03:04:54.701Z,100726.66
2024-03-15T03:07:22.926Z,100732.91
2024-03-15T03:09:50.033Z,100728.50
2024-03-15T03:12:17.125Z,100727.34
2024-03-15T03:14:44.301Z,100729.50
2024-03-15T03:17:12.472Z,100734.63
2024-03-15T03:19:39.504Z,100742.03
2024-03-15T03:22:07.569Z,100746.72
2024-03-15T03:24:35.740Z,100749.00
2024-03-15T03:27:02.748Z,100748.16
2024-03-15T03:29:30.352Z,100757.34
2024-03-15T03:31:59.646Z,100751.94
2024-03-15T03:34:26.662Z,100761.59
2024-03-15T03:36:59.675Z,100757.72
2024-03-15T03:39:27.657Z,100755.34
2024-03-15T03:41:56.190Z,100752.66
2024-03-15T03:44:23.193Z,100750.13
2024-03-15T03:46:50.160Z,100744.19
2024-03-15T03:49:17.236Z,100748.09
2024-03-15T03:51:44.264Z,100754.03
2024-03-15T03:54:13.291Z,100745.22
2024-03-15T03:56:40.335Z,100742.19
2024-03-15T03:59:07.370Z,100760.94
2024-03-15T04:01:35.489Z,100751.31
2024-03-15T04:04:07.369Z,100750.31
2024-03-15T04:06:34.510Z,100747.78
2024-03-15T04:09:02.134Z,100754.53
2024-03-15T04:11:29.630Z,100742.88
2024-03-15T04:13:56.598Z,100743.72
2024-03-15T04:16:23.667Z,100749.81
2024-03-15T04:18:51.396Z,100752.34
2024-03-15T04:21:19.482Z,100748.97
2024-03-15T04:23:47.921Z,100746.28
2024-03-15T04:26:14.865Z,100745.41
2024-03-15T04:28:43.253Z,100756.06
2024-03-15T04:31:10.246Z,100745.09
2024-03-15T04:33:37.366Z,100751.16
2024-03-15T04:36:06.379Z,100750.81
2024-03-15T04:38:34.100Z,100740.69
2024-03-15T04:41:11.278Z,100747.25
2024-03-15T04:43:38.656Z,100741.34
2024-03-15T04:46:06.225Z,100741.19
2024-03-15T04:48:33.709Z,100738.47
2024-03-15T04:51:01.830Z,100744.56
2024-03-15T04:53:30.165Z,100739.31
2024-03-15T04:55:57.158Z,100730.19
2024-03-15T04:58:32.056Z,100738.00
2024-03-15T05:00:59.169Z,100729.19
2024-03-15T05:03:26.238Z,100733.25
2024-03-15T05:05:53.149Z,100728.81
2024-03-15T05:08:20.182Z,100725.97
2024-03-15T05:10:51.261Z,100725.63
2024-03-15T05:13:18.325Z,100730.69
2024-03-15T05:15:45.253Z,100728.81
2024-03-15T05:18:16.017Z,100736.09
2024-03-15T05:20:43.228Z,100733.19
2024-03-15T05:23:10.298Z,100724.94
2024-03-15T05:25:37.783Z,100723.22
2024-03-15T05:28:06.910Z,100726.28
2024-03-15T05:30:33.856Z,100736.44
2024-03-15T05:33:01.239Z,100724.78
2024-03-15T05:35:30.360Z,100740.34
2024-03-15T05:50:17.980Z,100742.19
2024-03-15T05:52:45.282Z,100748.81
2024-03-15T05:55:13.030Z,100740.69
2024-03-15T05:57:40.915Z,100738.00
2024-03-15T06:00:17.115Z,100742.38
2024-03-15T06:02:45.447Z,100751.16
2024-03-15T06:05:14.367Z,100744.91
2024-03-15T06:07:42.860Z,100744.25
2024-03-15T06:10:09.844Z,100745.25
2024-03-15T06:12:36.952Z,100753.38
2024-03-15T06:15:05.345Z,100754.19
2024-03-15T06:17:33.050Z,100757.75
2024-03-15T06:20:01.217Z,100758.78
2024-03-15T06:22:28.173Z,100757.94
2024-03-15T06:24:57.508Z,100764.66
2024-03-15T06:27:24.771Z,100758.25
2024-03-15T06:29:54.023Z,100754.69
2024-03-15T06:32:28.063Z,100757.22
2024-03-15T06:34:56.653Z,100767.72
2024-03-15T06:37:25.005Z,100758.41
2024-03-15T06:39:57.990Z,100765.34
2024-03-15T06:42:26.018Z,100774.63
2024-03-15T06:45:05.265Z,100779.34
2024-03-15T06:47:34.640Z,100774.59
2024-03-15T06:50:08.109Z,100775.63
2024-03-15T06:52:37.880Z,100767.00
2024-03-15T06:55:08.600Z,100775.63
2024-03-15T06:57:54.046Z,100776.81
2024-03-15T07:00:55.688Z,100772.38
2024-03-15T07:03:26.081Z,100764.78
2024-03-15T07:05:53.075Z,100774.94
2024-03-15T07:08:38.079Z,100773.56
2024-03-15T07:11:05.764Z,100767.31
2024-03-15T07:13:48.804Z,100780.66
2024-03-15T07:16:18.026Z,100790.97
2024-03-15T07:18:50.378Z,100789.59
2024-03-15T07:21:34.047Z,100751.25
2024-03-15T07:24:07.668Z,100776.41
2024-03-15T07:26:50.110Z,100766.44
2024-03-15T07:29:25.438Z,100786.03
2024-03-15T07:31:56.950Z,100789.53
2024-03-15T07:34:23.985Z,100777.75
2024-03-15T07:36:51.065Z,100792.56
2024-03-15T07:39:18.103Z,100781.09
2024-03-15T07:41:45.306Z,100785.47
2024-03-15T07:44:16.398Z,100787.81
2024-03-15T07:46:43.639Z,100790.22
2024-03-15T07:49:30.886Z,100785.97
2024-03-15T07:52:02.452Z,100797.81
2024-03-15T07:54:35.418Z,100789.88
2024-03-15T07:57:17.402Z,100798.63
2024-03-15T07:59:55.932Z,100801.66
2024-03-15T08:02:26.210Z,100761.97
2024-03-15T08:04:58.675Z,100775.94
2024-03-15T08:07:30.730Z,100779.09
2024-03-15T08:09:57.849Z,100800.03
2024-03-15T08:12:25.937Z,100789.31
2024-03-15T08:26:16.559Z,100805.06
2024-03-15T08:55:43.863Z,100799.38
2024-03-15T08:58:13.044Z,100805.44
2024-03-15T09:00:40.823Z,100784.94
2024-03-15T09:03:10.506Z,100807.03
2024-03-15T09:05:40.038Z,100803.59
2024-03-15T09:08:12.419Z,100805.41
2024-03-15T09:10:41.387Z,100795.94
2024-03-15T09:13:08.957Z,100811.78
2024-03-15T09:15:36.792Z,100809.16
2024-03-15T09:18:10.272Z,100802.28
2024-03-15T09:20:44.124Z,100805.00
2024-03-15T09:23:14.042Z,100795.16
2024-03-15T09:25:41.071Z,100812.69
2024-03-15T09:28:11.195Z,100802.22
2024-03-15T09:30:50.973Z,100823.41
2024-03-15T09:33:29.393Z,100811.72
2024-03-15T09:36:00.493Z,100817.88
2024-03-15T09:38:27.536Z,100812.25
2024-03-15T09:41:00.147Z,100812.56
2024-03-15T09:43:31.878Z,100826.00
2024-03-15T09:45:59.479Z,100823.22
2024-03-15T09:48:30.493Z,100823.88
2024-03-15T09:51:05.427Z,100823.97
2024-03-15T09:53:32.674Z,100834.84
2024-03-15T09:56:02.554Z,100820.25
2024-03-15T09:58:29.965Z,100830.03
2024-03-15T10:00:59.908Z,100818.59
2024-03-15T10:03:27.124Z,100819.16
2024-03-15T10:05:55.304Z,100832.88
2024-03-15T10:11:04.118Z,100827.75
2024-03-15T10:13:32.093Z,100825.63
2024-03-15T10:16:01.712Z,100828.81
2024-03-15T10:18:36.033Z,100821.50
2024-03-15T10:21:03.070Z,100832.84
2024-03-15T10:23:30.327Z,100833.75
2024-03-15T10:25:57.727Z,100841.50
2024-03-15T10:28:24.974Z,100847.16
2024-03-15T10:30:51.989Z,100845.03
2024-03-15T10:33:19.196Z,100850.22
2024-03-15T10:35:46.496Z,100854.97
2024-03-15T10:38:16.429Z,100848.66
2024-03-15T10:40:44.605Z,100854.09
2024-03-15T10:43:14.554Z,100839.91
2024-03-15T10:45:42.970Z,100837.63
2024-03-15T10:48:11.540Z,100836.78
2024-03-15T10:50:47.403Z,100833.16
2024-03-15T10:53:17.464Z,100839.69
2024-03-15T10:55:44.407Z,100840.84
2024-03-15T10:58:12.978Z,100831.19
2024-03-15T11:00:40.814Z,100835.78
2024-03-15T11:03:27.309Z,100835.28
2024-03-15T11:05:56.542Z,100820.97
2024-03-15T11:08:23.982Z,100835.28
2024-03-15T11:11:04.669Z,100838.41
2024-03-15T11:13:38.364Z,100835.03
2024-03-15T11:16:26.319Z,100826.69
2024-03-15T11:18:53.706Z,100822.47
2024-03-15T11:21:22.922Z,100832.78
2024-03-15T11:23:51.148Z,100841.53
2024-03-15T11:26:22.652Z,100816.91
2024-03-15T11:29:00.038Z,100817.03
2024-03-15T11:31:30.566Z,100815.06
2024-03-15T11:34:01.147Z,100809.78
2024-03-15T11:36:30.428Z,100813.19
2024-03-15T11:38:58.233Z,100811.81
2024-03-15T11:41:25.554Z,100812.84
2024-03-15T11:44:05.824Z,100801.59
2024-03-15T11:46:34.019Z,100803.47
2024-03-15T11:49:07.208Z,100811.50
2024-03-15T11:51:34.255Z,100804.69
2024-03-15T11:54:01.427Z,100797.88
2024-03-15T11:56:30.287Z,100812.03
2024-03-15T11:59:04.269Z,100795.06
2024-03-15T12:01:32.179Z,100805.34
2024-03-15T12:04:00.960Z,100803.97
2024-03-15T12:06:28.027Z,100808.47
2024-03-15T12:09:04.495Z,100805.22
2024-03-15T12:11:38.193Z,100816.88
2024-03-15T12:14:08.735Z,100805.31
2024-03-15T12:16:43.178Z,100807.16
2024-03-15T12:19:16.765Z,100808.38
2024-03-15T12:22:11.273Z,100798.53
2024-03-15T12:24:38.614Z,100790.59
2024-03-15T12:27:11.744Z,100794.66
2024-03-15T12:29:46.063Z,100803.09
2024-03-15T12:32:14.035Z,100792.22
2024-03-15T12:34:41.479Z,100790.16
2024-03-15T12:37:10.032Z,100784.38
2024-03-15T12:39:41.209Z,100781.91
2024-03-15T12:42:10.026Z,100774.47
2024-03-15T12:44:37.264Z,100780.44
2024-03-15T12:47:04.359Z,100786.50
2024-03-15T12:49:33.795Z,100785.88
2024-03-15T12:52:01.336Z,100788.88
2024-03-15T12:54:28.441Z,100786.84
2024-03-15T12:57:06.904Z,100782.88
2024-03-15T12:59:33.963Z,100783.47
2024-03-15T13:02:01.969Z,100781.72
2024-03-15T13:04:29.021Z,100775.06
2024-03-15T13:06:56.446Z,100787.38
2024-03-15T13:09:24.726Z,100778.28
2024-03-15T13:11:51.696Z,100773.84
2024-03-15T13:14:23.032Z,100776.47
2024-03-15T13:16:49.992Z,100791.00
2024-03-15T13:19:16.959Z,100777.50
2024-03-15T13:21:44.512Z,100780.22
2024-03-15T13:24:12.640Z,100782.81
2024-03-15T13:26:39.546Z,100775.03
2024-03-15T13:29:13.834Z,100774.38
2024-03-15T13:31:40.813Z,100767.53
2024-03-15T13:34:36.676Z,100770.94
2024-03-15T13:37:03.815Z,100778.13
2024-03-15T13:39:32.554Z,100779.81
2024-03-15T13:41:59.639Z,100766.72
2024-03-15T13:44:40.816Z,100768.00
2024-03-15T13:48:22.408Z,100767.59
2024-03-15T13:51:03.899Z,100781.81
2024-03-15T13:53:34.064Z,100781.47
2024-03-15T13:56:01.185Z,100761.50
2024-03-15T13:59:32.534Z,100794.88
2024-03-15T14:02:39.778Z,100793.19
2024-03-15T14:05:17.916Z,100810.03
2024-03-15T14:07:51.857Z,100800.56
2024-03-15T14:10:21.619Z,100791.47
2024-03-15T14:12:51.112Z,100801.31
2024-03-15T14:15:21.122Z,100786.81
2024-03-15T14:17:53.952Z,100786.72
2024-03-15T14:20:26.012Z,100795.03
2024-03-15T14:22:59.207Z,100788.78
2024-03-15T14:25:41.305Z,100789.53
2024-03-15T14:28:16.232Z,100768.06
2024-03-15T14:30:49.616Z,100788.53
2024-03-15T14:33:28.561Z,100773.94
2024-03-15T14:35:59.440Z,100776.47
2024-03-15T14:38:34.187Z,100770.91
2024-03-15T14:41:02.558Z,100774.38
2024-03-15T14:43:30.871Z,100772.91
2024-03-15T14:46:23.712Z,100782.03
2024-03-15T14:48:58.547Z,100760.94
2024-03-15T14:51:52.122Z,100768.34
2024-03-15T14:54:48.184Z,100763.19
2024-03-15T15:03:24.267Z,100764.81
2024-03-15T15:05:54.107Z,100774.34
2024-03-15T15:08:25.592Z,100776.69
2024-03-15T15:10:54.404Z,100781.16
2024-03-15T15:13:46.891Z,100778.56
2024-03-15T15:16:19.716Z,100777.00
2024-03-15T15:18:52.782Z,100779.38
2024-03-15T15:21:20.226Z,100779.16
2024-03-15T15:23:47.350Z,100760.00
2024-03-15T15:26:14.575Z,100763.78
2024-03-15T15:28:48.741Z,100780.63
2024-03-15T15:31:33.740Z,100753.41
2024-03-15T15:34:03.573Z,100776.63
2024-03-15T15:37:03.740Z,100790.47
2024-03-15T15:39:38.670Z,100779.09
2024-03-15T15:42:39.882Z,100773.19
2024-03-15T15:45:51.326Z,100778.47
2024-03-15T15:52:25.892Z,100772.19
2024-03-15T15:54:53.748Z,100751.78
2024-03-15T15:57:23.384Z,100755.72
2024-03-15T15:59:54.971Z,100791.50
2024-03-15T16:02:45.494Z,100790.66
2024-03-15T16:05:15.119Z,100789.22
2024-03-15T16:07:45.733Z,100800.88
2024-03-15T16:10:13.496Z,100803.22
2024-03-15T16:12:46.282Z,100797.94
2024-03-15T16:15:13.467Z,100806.38
2024-03-15T16:17:40.618Z,100809.16
2024-03-15T16:20:09.846Z,100807.00
2024-03-15T16:22:37.587Z,100813.47
2024-03-15T16:25:07.449Z,100810.25
2024-03-15T16:27:41.588Z,100807.72
2024-03-15T16:30:09.275Z,100818.78
2024-03-15T16:32:36.380Z,100813.34
2024-03-15T16:35:08.216Z,100816.06
2024-03-15T16:37:35.826Z,100817.94
2024-03-15T16:40:02.923Z,100812.69
2024-03-15T16:42:31.119Z,100814.75
2024-03-15T16:44:59.358Z,100824.06
2024-03-15T16:47:26.342Z,100823.59
2024-03-15T16:49:53.343Z,100828.72
2024-03-15T16:52:20.573Z,100827.59
2024-03-15T16:54:47.784Z,100827.66
2024-03-15T16:57:27.572Z,100841.25
2024-03-15T17:00:00.822Z,100849.88
2024-03-15T17:20:31.281Z,100846.00
2024-03-15T17:22:58.287Z,100833.81
2024-03-15T17:25:25.319Z,100844.53
2024-03-15T17:27:53.418Z,100850.66
2024-03-15T17:30:21.138Z,100843.38
2024-03-15T17:32:48.232Z,100846.44
2024-03-15T17:35:20.613Z,100857.81
2024-03-15T17:37:47.631Z,100851.53
2024-03-15T17:40:14.665Z,100863.22
2024-03-15T17:42:41.659Z,100857.81
2024-03-15T17:45:13.055Z,100858.81
2024-03-15T17:47:40.229Z,100870.31
2024-03-15T17:50:10.516Z,100874.41
2024-03-15T17:52:45.302Z,100864.78
2024-03-15T17:55:12.429Z,100877.50
2024-03-15T17:57:39.617Z,100873.25
2024-03-15T18:00:13.441Z,100886.31
2024-03-15T18:02:45.379Z,100888.69
2024-03-15T18:05:15.812Z,100882.13
2024-03-15T18:07:43.042Z,100887.72
2024-03-15T18:10:13.927Z,100888.03
2024-03-15T18:12:41.277Z,100889.78
2024-03-15T18:15:08.673Z,100905.50
2024-03-15T18:17:38.988Z,100906.53
2024-03-15T18:20:13.747Z,100893.06
2024-03-15T18:22:41.320Z,100904.19
2024-03-15T18:25:11.868Z,100905.22
2024-03-15T18:27:39.254Z,100907.75
2024-03-15T18:30:07.469Z,100903.53
2024-03-15T18:32:40.295Z,100918.59
2024-03-15T18:35:07.946Z,100914.53
2024-03-15T18:37:34.920Z,100911.47
2024-03-15T18:40:02.155Z,100912.00
2024-03-15T18:42:29.320Z,100923.66
2024-03-15T18:44:58.266Z,100919.25
2024-03-15T18:47:25.318Z,100905.22
2024-03-15T18:49:53.415Z,100904.38
2024-03-15T18:52:21.395Z,100925.00
2024-03-15T18:54:50.521Z,100916.41
2024-03-15T18:57:18.317Z,100922.97
2024-03-15T18:59:47.886Z,100929.09
2024-03-15T19:02:20.524Z,100918.59
2024-03-15T19:04:52.625Z,100914.38
2024-03-15T19:07:25.918Z,100906.91
2024-03-15T19:09:53.314Z,100909.31
2024-03-15T19:12:22.698Z,100921.16
2024-03-15T19:14:52.995Z,100904.75
2024-03-15T19:17:20.069Z,100886.47
2024-03-15T19:19:48.515Z,100919.44
2024-03-15T19:22:18.178Z,100928.06
2024-03-15T19:24:45.673Z,100922.81
2024-03-15T19:27:13.124Z,100917.06
2024-03-15T19:29:40.128Z,100925.53
2024-03-15T19:32:10.073Z,100927.03
2024-03-15T19:34:39.227Z,100926.53
2024-03-15T19:37:07.279Z,100931.09
2024-03-15T19:39:36.363Z,100931.41
2024-03-15T19:42:03.401Z,100927.19
2024-03-15T19:44:30.360Z,100938.66
2024-03-15T19:46:57.685Z,100939.84
2024-03-15T19:49:24.611Z,100942.22
2024-03-15T19:51:52.819Z,100950.47
2024-03-15T19:54:20.619Z,100952.34
2024-03-15T19:56:48.291Z,100952.84
2024-03-15T19:59:16.439Z,100958.25
2024-03-15T20:01:44.641Z,100952.19
2024-03-15T20:04:12.501Z,100956.06
2024-03-15T20:06:42.202Z,100948.28
2024-03-15T20:09:09.319Z,100946.59
2024-03-15T20:11:38.409Z,100939.13
2024-03-15T20:14:07.146Z,100944.72
2024-03-15T20:16:34.544Z,100945.06
2024-03-15T20:19:01.820Z,100943.66
2024-03-15T20:21:28.881Z,100932.34
2024-03-15T20:23:59.696Z,100940.63
2024-03-15T20:26:30.388Z,100933.84
2024-03-15T20:28:57.437Z,100939.13
2024-03-15T20:31:24.398Z,100935.19
2024-03-15T20:33:51.485Z,100936.22
2024-03-15T20:36:18.478Z,100936.38
2024-03-15T20:38:45.513Z,100941.41
2024-03-15T20:41:12.435Z,100942.94
2024-03-15T20:43:48.064Z,100942.56
2024-03-15T20:46:14.960Z,100948.63
2024-03-15T20:48:42.386Z,100948.50
2024-03-15T20:51:11.374Z,100938.72
2024-03-15T20:53:40.009Z,100945.00
2024-03-15T20:56:08.852Z,100953.31
2024-03-15T20:58:38.399Z,100943.66
2024-03-15T21:01:08.143Z,100950.28
2024-03-15T21:03:38.632Z,100946.38
2024-03-15T21:06:06.629Z,100949.91
2024-03-15T21:08:35.965Z,100961.25
2024-03-15T21:11:02.989Z,100951.06
2024-03-15T21:13:30.114Z,100960.03
2024-03-15T21:15:57.316Z,100955.25
2024-03-15T21:18:26.532Z,100962.69
2024-03-15T21:21:00.305Z,100968.94
2024-03-15T21:23:27.822Z,100963.88
2024-03-15T21:25:57.066Z,100953.78
2024-03-15T21:28:27.032Z,100964.25
2024-03-15T21:30:57.737Z,100965.44
2024-03-15T21:33:25.682Z,100960.69
2024-03-15T21:35:53.188Z,100968.94
2024-03-15T21:38:21.603Z,100957.41
2024-03-15T21:40:55.942Z,100976.34
2024-03-15T21:43:27.366Z,100974.16
2024-03-15T21:45:58.098Z,100973.31
2024-03-15T21:48:25.154Z,100978.09
2024-03-15T21:50:52.186Z,100988.22
2024-03-15T21:53:19.454Z,100978.09
2024-03-15T21:55:54.866Z,100976.41
2024-03-15T21:58:22.694Z,100985.19
2024-03-15T22:00:50.336Z,100987.75
2024-03-15T22:03:19.914Z,100984.03
2024-03-15T22:05:48.023Z,100996.53
2024-03-15T22:08:15.575Z,100982.66
2024-03-15T22:10:42.512Z,100985.69
2024-03-15T22:13:09.561Z,100995.31
2024-03-15T22:15:36.790Z,100995.31
2024-03-15T22:18:04.894Z,101000.88
2024-03-15T22:20:31.908Z,100996.50
2024-03-15T22:23:01.319Z,100980.94
2024-03-15T22:25:30.288Z,100996.50
2024-03-15T22:27:59.295Z,100998.19
2024-03-15T22:30:27.480Z,100996.50
2024-03-15T22:33:00.604Z,100988.00
2024-03-15T22:35:28.423Z,100991.72
2024-03-15T22:37:55.863Z,101005.78
2024-03-15T22:40:24.240Z,101011.88
2024-03-15T22:42:51.223Z,101001.06
2024-03-15T22:45:19.254Z,101002.53
2024-03-15T22:47:46.230Z,101000.38
2024-03-15T22:50:13.487Z,101004.94
2024-03-15T22:52:44.813Z,101000.22
2024-03-15T22:55:12.411Z,101000.53
2024-03-15T22:57:39.719Z,100995.28
2024-03-15T23:00:17.905Z,101002.41
2024-03-15T23:02:45.062Z,101009.84
2024-03-15T23:05:12.986Z,101001.22
2024-03-15T23:07:40.037Z,101002.56
2024-03-15T23:10:09.167Z,101003.25
2024-03-15T23:12:36.260Z,101003.25
2024-03-15T23:15:06.756Z,100992.94
2024-03-15T23:17:34.701Z,101008.53
2024-03-15T23:20:01.867Z,101009.38
2024-03-15T23:22:29.053Z,101007.50
2024-03-15T23:24:56.276Z,101006.50
2024-03-15T23:27:25.586Z,101002.09
2024-03-15T23:29:54.853Z,101010.38
2024-03-15T23:32:21.816Z,101004.59
2024-03-15T23:34:49.461Z,101007.97
2024-03-15T23:37:16.485Z,101017.59
2024-03-15T23:39:48.599Z,101022.34
2024-03-15T23:42:15.555Z,101014.22
2024-03-15T23:44:42.442Z,101012.72
2024-03-15T23:47:12.298Z,101021.81
2024-03-15T23:49:44.314Z,101030.78
2024-03-15T23:52:11.372Z,101013.22
2024-03-15T23:54:38.802Z,101029.56
2024-03-15T23:57:06.033Z,101035.44
2024-03-15T23:59:33.520Z,101025.13
